Time;durP1;ratioP1;P1;durP2;ratioP2;P2;SDS_P1;SDS_P2;PMS_P1;PMS_P2;Temp;Humidity;BMP_temperature;BMP_pressure;BME280_temperature;BME280_humidity;BME280_pressure;Samples;Min_cycle;Max_cycle;Signal;HPM_P1;HPM_P2
2021/09/16 00:00:08;;;;;;;;;;;;;;;14.58;85.32;101417.03;5070082;28;20393;-43
2021/09/16 00:02:35;;;;;;;;;;;;;;;14.47;85.57;101415.16;5070253;28;19925;-44
2021/09/16 00:05:01;;;;;;;;;;;;;;;14.40;85.42;101413.88;5069044;28;19932;-48
2021/09/16 00:07:28;;;;;;;;;;;;;;;14.39;85.86;101417.50;5068380;28;19931;-44
2021/09/16 00:09:55;;;;;;;;;;;;;;;14.28;86.47;101408.53;5069943;28;19931;-44
2021/09/16 00:12:22;;;;;;;;;;;;;;;14.30;86.02;101411.06;5068203;28;19931;-52
2021/09/16 00:14:48;;;;;;;;;;;;;;;14.29;86.24;101412.88;5070024;28;19932;-51
2021/09/16 00:17:15;;;;;;;;;;;;;;;14.26;85.95;101409.59;5069265;28;19925;-50
2021/09/16 00:19:43;;;;;;;;;;;;;;;14.08;87.19;101411.75;5035372;28;19928;-43
2021/09/16 00:22:09;;;;;;;;;;;;;;;14.19;86.86;101410.06;5072510;28;20379;-43
2021/09/16 00:24:36;;;;;;;;;;;;;;;14.15;86.46;101413.88;5073674;28;19928;-53
2021/09/16 00:27:03;;;;;;;;;;;;;;;14.07;86.87;101416.22;5073352;28;19925;-51
2021/09/16 00:29:30;;;;;;;;;;;;;;;14.14;86.71;101411.34;5072981;28;20395;-54
2021/09/16 00:31:56;;;;;;;;;;;;;;;14.10;86.76;101420.44;5072555;28;19928;-54
2021/09/16 00:34:23;;;;;;;;;;;;;;;14.07;86.88;101420.63;5071831;28;19929;-50
2021/09/16 00:36:49;;;;;;;;;;;;;;;14.03;87.09;101414.75;5071861;28;20402;-53
2021/09/16 00:39:16;;;;;;;;;;;;;;;13.94;87.57;101421.50;5072784;28;20330;-52
2021/09/16 00:41:43;;;;;;;;;;;;;;;13.91;87.38;101424.38;5072923;28;19928;-51
2021/09/16 00:44:09;;;;;;;;;;;;;;;13.85;88.67;101424.78;5072834;28;20600;-53
2021/09/16 00:46:36;;;;;;;;;;;;;;;13.80;88.44;101422.47;5073575;28;19940;-44
2021/09/16 00:49:06;;;;;;;;;;;;;;;13.75;88.72;101419.31;5073206;28;19928;-47
2021/09/16 00:51:33;;;;;;;;;;;;;;;13.73;89.04;101425.66;5073880;28;19928;-44
2021/09/16 00:54:00;;;;;;;;;;;;;;;13.69;88.84;101419.75;5072235;28;19925;-43
2021/09/16 00:56:27;;;;;;;;;;;;;;;13.70;88.96;101418.78;5071672;28;19928;-41
2021/09/16 00:58:53;;;;;;;;;;;;;;;13.65;89.37;101421.75;5070625;28;19956;-46
2021/09/16 01:01:20;;;;;;;;;;;;;;;13.60;89.71;101420.38;5072506;28;20291;-43
2021/09/16 01:03:47;;;;;;;;;;;;;;;13.64;89.71;101420.03;5072791;28;19924;-44
2021/09/16 01:06:13;;;;;;;;;;;;;;;13.72;89.36;101424.81;5073170;28;19924;-46
2021/09/16 01:08:40;;;;;;;;;;;;;;;13.71;89.41;101417.00;5073203;28;19928;-46
2021/09/16 01:11:06;;;;;;;;;;;;;;;13.69;89.65;101417.94;5073050;28;20411;-43
2021/09/16 01:13:33;;;;;;;;;;;;;;;13.71;90.03;101423.13;5071354;28;20342;-44
2021/09/16 01:16:00;;;;;;;;;;;;;;;13.73;90.31;101418.59;5073383;28;20398;-49
2021/09/16 01:18:27;;;;;;;;;;;;;;;13.75;90.22;101423.75;5072639;28;19941;-51
2021/09/16 01:20:54;;;;;;;;;;;;;;;13.66;90.71;101423.44;5072617;28;19951;-52
2021/09/16 01:23:21;;;;;;;;;;;;;;;13.63;91.19;101423.66;5071096;28;19934;-50
2021/09/16 01:25:48;;;;;;;;;;;;;;;13.64;91.12;101420.03;5054688;28;19935;-52
2021/09/16 01:28:14;;;;;;;;;;;;;;;13.69;91.48;101425.03;5069865;28;19928;-50
2021/09/16 01:30:43;;;;;;;;;;;;;;;13.74;91.07;101420.25;5072852;28;19924;-53
2021/09/16 01:33:10;;;;;;;;;;;;;;;13.76;90.92;101422.81;5071009;28;19932;-44
2021/09/16 01:35:37;;;;;;;;;;;;;;;13.74;91.13;101430.00;5054618;28;19931;-49
2021/09/16 01:38:03;;;;;;;;;;;;;;;13.72;91.37;101427.47;5054949;28;19970;-46
2021/09/16 01:40:30;;;;;;;;;;;;;;;13.73;90.88;101420.34;5072345;28;19925;-45
2021/09/16 01:42:57;;;;;;;;;;;;;;;13.75;90.60;101418.47;5070236;28;19928;-47
2021/09/16 01:45:25;;;;;;;;;;;;;;;13.72;90.77;101424.81;5072592;28;19948;-43
2021/09/16 01:47:52;;;;;;;;;;;;;;;13.71;90.43;101425.75;5072050;28;20124;-44
2021/09/16 01:50:20;;;;;;;;;;;;;;;13.67;90.60;101425.16;5071931;28;19931;-45
2021/09/16 01:52:47;;;;;;;;;;;;;;;13.68;90.44;101428.63;5054573;28;19993;-44
2021/09/16 01:55:14;;;;;;;;;;;;;;;13.69;90.47;101422.38;5071868;28;19947;-42
2021/09/16 01:57:40;;;;;;;;;;;;;;;13.67;90.12;101425.16;5069675;28;19924;-43
2021/09/16 02:00:08;;;;;;;;;;;;;;;13.64;90.31;101424.50;5071327;28;20371;-44
2021/09/16 02:02:34;;;;;;;;;;;;;;;13.64;90.40;101424.50;5054163;28;20441;-46
2021/09/16 02:05:01;;;;;;;;;;;;;;;13.60;90.14;101429.13;5071924;28;19925;-46
2021/09/16 02:07:27;;;;;;;;;;;;;;;13.55;90.89;101439.16;5071949;28;19954;-44
2021/09/16 02:09:54;;;;;;;;;;;;;;;13.49;90.92;101436.97;5072002;28;19952;-42
2021/09/16 02:12:21;;;;;;;;;;;;;;;13.50;90.94;101431.56;5070568;28;20395;-43
2021/09/16 02:14:47;;;;;;;;;;;;;;;13.51;91.02;101429.75;5071577;28;19929;-43
2021/09/16 02:17:14;;;;;;;;;;;;;;;13.40;91.33;101427.00;5071531;28;19935;-43
2021/09/16 02:19:40;;;;;;;;;;;;;;;13.48;91.47;101433.50;5070350;28;19928;-44
2021/09/16 02:22:07;;;;;;;;;;;;;;;13.43;91.33;101432.94;5070646;28;19940;-45
2021/09/16 02:24:34;;;;;;;;;;;;;;;13.39;91.77;101431.47;5070452;28;19955;-45
2021/09/16 02:27:01;;;;;;;;;;;;;;;13.40;91.88;101427.00;5071215;28;19987;-42
2021/09/16 02:29:27;;;;;;;;;;;;;;;13.38;91.70;101429.75;5070712;28;20461;-44
2021/09/16 02:31:54;;;;;;;;;;;;;;;13.35;91.98;101435.22;5070866;28;19924;-44
2021/09/16 02:34:20;;;;;;;;;;;;;;;13.30;92.40;101439.97;5070956;28;20671;-44
2021/09/16 02:36:47;;;;;;;;;;;;;;;13.29;92.54;101446.19;5071551;28;20484;-43
2021/09/16 02:39:14;;;;;;;;;;;;;;;13.30;93.15;101453.19;5070621;28;19950;-45
2021/09/16 02:41:40;;;;;;;;;;;;;;;13.32;93.27;101453.91;5069750;28;20283;-44
2021/09/16 02:44:07;;;;;;;;;;;;;;;13.31;93.71;101457.53;5069536;28;19928;-43
2021/09/16 02:46:34;;;;;;;;;;;;;;;13.32;93.87;101454.78;5071568;28;19932;-46
2021/09/16 02:49:01;;;;;;;;;;;;;;;13.35;93.93;101451.94;5070868;28;20485;-43
2021/09/16 02:51:28;;;;;;;;;;;;;;;13.37;94.06;101443.91;5071440;28;19925;-45
2021/09/16 02:53:54;;;;;;;;;;;;;;;13.39;94.26;101443.81;5071291;28;19931;-41
2021/09/16 02:56:21;;;;;;;;;;;;;;;13.39;94.46;101442.03;5069511;28;19943;-43
2021/09/16 02:58:48;;;;;;;;;;;;;;;13.42;94.70;101447.09;5068436;28;20429;-42
2021/09/16 03:01:14;;;;;;;;;;;;;;;13.43;94.77;101440.00;5071249;28;19924;-42
2021/09/16 03:03:41;;;;;;;;;;;;;;;13.47;94.80;101445.00;5069407;28;20295;-42
2021/09/16 03:06:08;;;;;;;;;;;;;;;13.50;94.64;101446.59;5069991;28;20371;-41
2021/09/16 03:08:35;;;;;;;;;;;;;;;13.53;94.60;101454.31;5070552;28;19936;-41
2021/09/16 03:11:01;;;;;;;;;;;;;;;13.54;94.61;101458.66;5071235;28;20429;-43
2021/09/16 03:13:28;;;;;;;;;;;;;;;13.56;94.63;101464.66;5068894;28;19970;-41
2021/09/16 03:15:55;;;;;;;;;;;;;;;13.60;94.51;101473.22;5069294;28;19924;-46
2021/09/16 03:18:21;;;;;;;;;;;;;;;13.62;94.21;101473.94;5069789;28;20007;-43
2021/09/16 03:20:48;;;;;;;;;;;;;;;13.71;94.35;101472.50;5069860;28;19990;-45
2021/09/16 03:23:15;;;;;;;;;;;;;;;13.71;94.54;101475.16;5068863;28;19958;-47
2021/09/16 03:25:41;;;;;;;;;;;;;;;13.74;94.33;101477.56;5070114;28;20425;-45
2021/09/16 03:28:08;;;;;;;;;;;;;;;13.76;94.41;101475.69;5067419;28;19928;-44
2021/09/16 03:30:35;;;;;;;;;;;;;;;13.75;94.40;101463.41;5070396;28;19931;-45
2021/09/16 03:33:01;;;;;;;;;;;;;;;13.75;94.23;101466.88;5069449;28;19931;-45
2021/09/16 03:35:28;;;;;;;;;;;;;;;13.81;94.44;101470.91;5069512;28;19928;-44
2021/09/16 03:37:55;;;;;;;;;;;;;;;13.81;94.61;101470.91;5070268;28;19970;-44
2021/09/16 03:40:21;;;;;;;;;;;;;;;13.82;95.04;101473.44;5070035;28;19924;-43
2021/09/16 03:42:50;;;;;;;;;;;;;;;13.82;95.31;101476.06;5068698;28;19928;-44
2021/09/16 03:45:17;;;;;;;;;;;;;;;13.86;95.51;101479.38;5070511;28;20383;-45
2021/09/16 03:47:44;;;;;;;;;;;;;;;13.85;95.43;101480.31;5070392;28;19928;-42
2021/09/16 03:50:11;;;;;;;;;;;;;;;13.90;95.25;101480.84;5069722;28;20501;-50
2021/09/16 03:52:37;;;;;;;;;;;;;;;13.95;95.90;101475.25;5069235;28;20307;-53
2021/09/16 03:55:05;;;;;;;;;;;;;;;13.97;96.48;101471.53;5070279;28;19970;-52
2021/09/16 03:57:31;;;;;;;;;;;;;;;13.98;95.96;101473.22;5068527;28;19947;-48
2021/09/16 03:59:59;;;;;;;;;;;;;;;13.97;96.54;101476.81;5068888;28;20302;-53
2021/09/16 04:02:25;;;;;;;;;;;;;;;13.93;96.25;101467.41;5070037;28;19924;-49
2021/09/16 04:04:52;;;;;;;;;;;;;;;13.93;96.54;101475.34;5052286;28;19929;-52
2021/09/16 04:07:19;;;;;;;;;;;;;;;13.89;96.97;101479.16;5069693;28;19963;-48
2021/09/16 04:09:45;;;;;;;;;;;;;;;13.90;97.16;101472.09;5069737;28;19929;-41
2021/09/16 04:12:12;;;;;;;;;;;;;;;13.92;96.67;101475.44;5068635;28;19929;-44
2021/09/16 04:14:38;;;;;;;;;;;;;;;13.94;97.02;101476.19;5069629;28;20002;-44
2021/09/16 04:17:05;;;;;;;;;;;;;;;13.96;97.08;101477.78;5070096;28;19925;-44
2021/09/16 04:19:32;;;;;;;;;;;;;;;14.01;97.00;101480.09;5067807;28;19925;-43
2021/09/16 04:21:58;;;;;;;;;;;;;;;14.00;97.23;101481.03;5070303;28;20383;-46
2021/09/16 04:24:25;;;;;;;;;;;;;;;14.03;97.24;101478.22;5069702;28;19925;-43
2021/09/16 04:26:52;;;;;;;;;;;;;;;14.00;97.11;101476.63;5069690;28;19925;-43
2021/09/16 04:29:18;;;;;;;;;;;;;;;13.99;96.83;101482.03;5068661;28;19924;-41
2021/09/16 04:31:45;;;;;;;;;;;;;;;13.97;97.59;101476.81;5070023;28;19928;-44
2021/09/16 04:34:12;;;;;;;;;;;;;;;14.00;97.24;101478.41;5069323;28;19928;-44
2021/09/16 04:36:38;;;;;;;;;;;;;;;14.01;97.65;101486.22;5068960;28;19928;-41
2021/09/16 04:39:05;;;;;;;;;;;;;;;14.03;98.10;101479.03;5068812;28;19924;-40
2021/09/16 04:41:33;;;;;;;;;;;;;;;14.04;97.82;101477.25;5069263;28;19928;-42
2021/09/16 04:43:59;;;;;;;;;;;;;;;14.05;98.17;101486.88;5068133;28;19933;-43
2021/09/16 04:46:26;;;;;;;;;;;;;;;14.09;98.23;101475.13;5068677;28;20378;-41
2021/09/16 04:48:53;;;;;;;;;;;;;;;14.10;97.61;101483.94;5069445;28;19962;-41
2021/09/16 04:51:19;;;;;;;;;;;;;;;14.10;98.16;101483.94;5069365;28;19931;-41
2021/09/16 04:53:46;;;;;;;;;;;;;;;14.14;98.53;101480.09;5068223;28;19929;-44
2021/09/16 04:56:13;;;;;;;;;;;;;;;14.15;98.10;101481.78;5069206;28;20306;-43
2021/09/16 04:58:39;;;;;;;;;;;;;;;14.13;98.45;101479.25;5067237;28;19931;-43
2021/09/16 05:01:06;;;;;;;;;;;;;;;14.13;98.03;101489.00;5068892;28;19928;-44
2021/09/16 05:03:33;;;;;;;;;;;;;;;14.11;98.54;101478.53;5068922;28;19925;-41
2021/09/16 05:06:00;;;;;;;;;;;;;;;14.17;97.50;101486.00;5068116;28;19925;-41
2021/09/16 05:08:26;;;;;;;;;;;;;;;14.23;97.09;101487.38;5071259;28;20031;-42
2021/09/16 05:10:53;;;;;;;;;;;;;;;14.23;97.45;101484.72;5071634;28;19924;-43
2021/09/16 05:13:20;;;;;;;;;;;;;;;14.20;97.40;101490.25;5069425;28;19928;-41
2021/09/16 05:15:47;;;;;;;;;;;;;;;14.17;97.60;101491.28;5055457;28;19935;-42
2021/09/16 05:18:13;;;;;;;;;;;;;;;14.19;97.72;101484.13;5070941;28;20409;-41
2021/09/16 05:20:40;;;;;;;;;;;;;;;14.18;96.89;101482.41;5072223;28;19931;-42
2021/09/16 05:23:07;;;;;;;;;;;;;;;14.17;96.71;101496.59;5072826;28;19925;-45
2021/09/16 05:25:34;;;;;;;;;;;;;;;14.20;97.26;101499.00;5072216;28;19929;-42
2021/09/16 05:28:01;;;;;;;;;;;;;;;14.24;96.33;101491.72;5069248;28;19935;-45
2021/09/16 05:30:27;;;;;;;;;;;;;;;14.23;96.67;101495.31;5071745;28;19924;-45
2021/09/16 05:32:54;;;;;;;;;;;;;;;14.24;96.07;101497.00;5072953;28;19977;-44
2021/09/16 05:35:21;;;;;;;;;;;;;;;14.15;96.24;101498.50;5072102;28;19924;-53
2021/09/16 05:37:48;;;;;;;;;;;;;;;14.21;96.80;101497.22;5072143;28;20488;-52
2021/09/16 05:40:15;;;;;;;;;;;;;;;14.21;96.60;101494.59;5071867;28;19994;-51
2021/09/16 05:42:41;;;;;;;;;;;;;;;14.24;95.60;101493.53;5069922;28;19932;-49
2021/09/16 05:45:09;;;;;;;;;;;;;;;14.27;95.83;101502.06;5072741;28;19932;-52
2021/09/16 05:47:35;;;;;;;;;;;;;;;14.27;96.10;101506.53;5072304;28;19952;-51
2021/09/16 05:50:03;;;;;;;;;;;;;;;14.26;96.01;101503.06;5072546;28;19932;-52
2021/09/16 05:52:30;;;;;;;;;;;;;;;14.28;96.13;101506.41;5072128;28;19954;-47
2021/09/16 05:54:57;;;;;;;;;;;;;;;14.29;96.33;101508.13;5054482;28;20391;-44
2021/09/16 05:57:24;;;;;;;;;;;;;;;14.34;96.56;101513.94;5069371;28;20266;-44
2021/09/16 05:59:51;;;;;;;;;;;;;;;14.37;96.06;101518.16;5054859;28;20017;-43
2021/09/16 06:02:19;;;;;;;;;;;;;;;14.33;95.34;101522.00;5071897;28;19933;-45
2021/09/16 06:04:46;;;;;;;;;;;;;;;14.36;95.19;101521.75;5071676;28;20027;-45
2021/09/16 06:07:13;;;;;;;;;;;;;;;14.37;94.96;101529.59;5071562;28;19931;-45
2021/09/16 06:09:39;;;;;;;;;;;;;;;14.42;95.30;101525.78;5071622;28;19928;-45
2021/09/16 06:12:07;;;;;;;;;;;;;;;14.42;94.97;101521.31;5071284;28;19951;-44
2021/09/16 06:14:34;;;;;;;;;;;;;;;14.42;95.59;101531.06;5070376;28;19950;-45
2021/09/16 06:17:01;;;;;;;;;;;;;;;14.46;94.59;101525.44;5070959;28;19929;-42
2021/09/16 06:19:28;;;;;;;;;;;;;;;14.45;94.68;101526.41;5070215;28;19929;-43
2021/09/16 06:21:54;;;;;;;;;;;;;;;14.48;94.60;101530.63;5071994;28;20379;-45
2021/09/16 06:24:21;;;;;;;;;;;;;;;14.51;94.53;101535.72;5071577;28;19966;-43
2021/09/16 06:26:48;;;;;;;;;;;;;;;14.45;94.46;101539.66;5071537;28;19924;-43
2021/09/16 06:29:15;;;;;;;;;;;;;;;14.47;94.96;101539.53;5070520;28;19939;-42
2021/09/16 06:31:41;;;;;;;;;;;;;;;14.44;95.03;101550.31;5072048;28;19971;-43
2021/09/16 06:34:08;;;;;;;;;;;;;;;14.43;94.66;101549.47;5071355;28;19929;-44
2021/09/16 06:36:35;;;;;;;;;;;;;;;14.47;94.04;101544.81;5070658;28;19924;-45
2021/09/16 06:39:02;;;;;;;;;;;;;;;14.48;94.31;101543.84;5070290;28;19997;-49
2021/09/16 06:41:29;;;;;;;;;;;;;;;14.48;94.02;101544.72;5071001;28;19932;-53
2021/09/16 06:43:56;;;;;;;;;;;;;;;14.44;94.57;101551.19;5069608;28;19928;-49
2021/09/16 06:46:24;;;;;;;;;;;;;;;14.45;94.42;101552.88;5069169;28;20141;-51
2021/09/16 06:48:51;;;;;;;;;;;;;;;14.53;93.10;101555.81;5070993;28;19947;-49
2021/09/16 06:51:18;;;;;;;;;;;;;;;14.43;93.43;101560.06;5071199;28;19924;-50
2021/09/16 06:53:58;;;;;;;;;;;;;;;14.44;94.43;101567.06;5071209;28;19924;-49
2021/09/16 06:56:25;;;;;;;;;;;;;;;14.45;94.82;101552.00;5070908;28;19964;-50
2021/09/16 06:58:51;;;;;;;;;;;;;;;14.50;93.84;101558.66;5069234;28;19928;-42
2021/09/16 07:01:18;;;;;;;;;;;;;;;14.46;92.88;101561.66;5071181;28;19925;-42
2021/09/16 07:03:47;;;;;;;;;;;;;;;14.58;93.63;101568.72;5070631;28;19990;-42
2021/09/16 07:06:15;;;;;;;;;;;;;;;14.63;94.00;101561.34;5070935;28;19928;-42
2021/09/16 07:08:41;;;;;;;;;;;;;;;14.74;94.59;101563.22;5069691;28;19925;-48
2021/09/16 07:11:08;;;;;;;;;;;;;;;14.87;92.59;101558.75;5069789;28;19947;-48
2021/09/16 07:13:35;;;;;;;;;;;;;;;14.95;93.05;101566.13;5069203;28;19929;-48
2021/09/16 07:16:02;;;;;;;;;;;;;;;15.01;92.60;101560.38;5071190;28;19924;-48
2021/09/16 07:18:31;;;;;;;;;;;;;;;15.14;92.08;101562.16;5070713;28;19936;-48
2021/09/16 07:20:57;;;;;;;;;;;;;;;15.27;92.36;101570.03;5070657;28;20383;-48
2021/09/16 07:23:24;;;;;;;;;;;;;;;15.39;91.00;101574.41;5069143;28;20005;-47
2021/09/16 07:25:51;;;;;;;;;;;;;;;15.43;89.02;101573.22;5070340;28;19978;-48
2021/09/16 07:28:18;;;;;;;;;;;;;;;15.62;90.97;101574.50;5068886;28;19951;-48
2021/09/16 07:30:44;;;;;;;;;;;;;;;15.76;89.41;101570.81;5070480;28;20809;-53
2021/09/16 07:33:12;;;;;;;;;;;;;;;15.93;88.81;101573.06;5069543;28;19931;-51
2021/09/16 07:35:39;;;;;;;;;;;;;;;16.13;88.90;101568.03;5068976;28;19924;-52
2021/09/16 07:38:05;;;;;;;;;;;;;;;16.35;87.19;101578.69;5070015;28;19935;-51
2021/09/16 07:40:32;;;;;;;;;;;;;;;16.44;85.47;101574.44;5070643;28;19928;-51
2021/09/16 07:42:59;;;;;;;;;;;;;;;16.55;84.59;101576.25;5068281;28;19974;-52
2021/09/16 07:45:26;;;;;;;;;;;;;;;16.75;84.72;101576.50;5070034;28;20346;-51
2021/09/16 07:47:52;;;;;;;;;;;;;;;16.95;83.86;101580.25;5070144;28;19924;-52
2021/09/16 07:50:19;;;;;;;;;;;;;;;17.11;81.57;101577.19;5069683;28;20295;-51
2021/09/16 07:52:46;;;;;;;;;;;;;;;17.23;82.06;101578.84;5070429;28;19924;-52
2021/09/16 07:55:13;;;;;;;;;;;;;;;17.52;81.16;101578.25;5069496;28;19932;-53
2021/09/16 07:57:40;;;;;;;;;;;;;;;17.73;80.56;101575.63;5069050;28;19930;-52
2021/09/16 08:00:07;;;;;;;;;;;;;;;17.76;80.92;101575.34;5070181;28;19924;-52
2021/09/16 08:02:42;;;;;;;;;;;;;;;17.77;79.27;101573.56;5069686;28;20457;-52
2021/09/16 08:05:10;;;;;;;;;;;;;;;17.96;79.92;101572.88;5069653;28;20027;-49
2021/09/16 08:07:37;;;;;;;;;;;;;;;17.96;79.04;101581.69;5069798;28;19929;-52
2021/09/16 08:10:04;;;;;;;;;;;;;;;18.08;78.52;101566.50;5068998;28;19990;-53
2021/09/16 08:12:31;;;;;;;;;;;;;;;18.37;79.39;101573.78;5068080;28;19929;-54
2021/09/16 08:14:57;;;;;;;;;;;;;;;18.38;76.75;101565.66;5069528;28;19925;-48
2021/09/16 08:17:24;;;;;;;;;;;;;;;18.47;76.71;101573.81;5069370;28;19960;-52
2021/09/16 08:19:51;;;;;;;;;;;;;;;18.51;74.74;101567.25;5068046;28;19924;-50
2021/09/16 08:22:18;;;;;;;;;;;;;;;18.37;75.26;101566.63;5069224;28;19928;-51
2021/09/16 08:24:44;;;;;;;;;;;;;;;18.58;74.41;101569.25;5069832;28;19932;-53
2021/09/16 08:27:11;;;;;;;;;;;;;;;18.75;73.50;101570.41;5068707;28;19977;-53
2021/09/16 08:29:38;;;;;;;;;;;;;;;18.96;73.20;101577.50;5069629;28;19925;-52
2021/09/16 08:32:05;;;;;;;;;;;;;;;19.13;72.95;101567.13;5069892;28;19975;-51
2021/09/16 08:34:32;;;;;;;;;;;;;;;19.27;73.29;101577.41;5068385;28;20027;-52
2021/09/16 08:36:59;;;;;;;;;;;;;;;19.36;70.54;101584.56;5069467;28;19974;-52
2021/09/16 08:39:25;;;;;;;;;;;;;;;19.52;71.44;101577.81;5069085;28;19931;-54
2021/09/16 08:41:52;;;;;;;;;;;;;;;19.76;69.53;101586.22;5069142;28;19932;-51
2021/09/16 08:44:19;;;;;;;;;;;;;;;19.69;67.79;101587.78;5072697;28;19960;-50
2021/09/16 08:46:46;;;;;;;;;;;;;;;19.86;68.30;101588.91;5073009;28;19929;-50
2021/09/16 08:49:13;;;;;;;;;;;;;;;20.02;68.82;101584.81;5071770;28;19946;-52
2021/09/16 08:51:40;;;;;;;;;;;;;;;20.09;68.98;101589.41;5073636;28;20440;-52
2021/09/16 08:54:07;;;;;;;;;;;;;;;20.00;68.24;101584.97;5073409;28;19928;-51
2021/09/16 08:56:34;;;;;;;;;;;;;;;20.28;67.41;101585.03;5072156;28;20300;-50
2021/09/16 08:59:03;;;;;;;;;;;;;;;20.22;65.22;101588.25;5070911;28;19928;-50
2021/09/16 09:01:29;;;;;;;;;;;;;;;20.25;64.41;101588.00;5073045;28;20391;-50
2021/09/16 09:03:56;;;;;;;;;;;;;;;20.32;65.03;101588.25;5071408;28;19929;-49
2021/09/16 09:06:38;;;;;;;;;;;;;;;20.32;64.47;101589.09;5072721;28;19983;-49
2021/09/16 09:09:20;;;;;;;;;;;;;;;20.77;65.69;101592.84;5071868;28;19924;-48
2021/09/16 09:12:00;;;;;;;;;;;;;;;20.83;63.60;101591.41;5071388;28;19956;-54
2021/09/16 09:14:26;;;;;;;;;;;;;;;20.80;63.20;101599.75;5071753;28;19929;-48
2021/09/16 09:16:53;;;;;;;;;;;;;;;20.85;61.88;101600.97;5073608;28;19929;-50
2021/09/16 09:19:21;;;;;;;;;;;;;;;21.04;63.25;101596.50;5071286;28;20371;-49
2021/09/16 09:21:48;;;;;;;;;;;;;;;20.90;61.71;101592.50;5073114;28;19998;-48
2021/09/16 09:24:35;;;;;;;;;;;;;;;20.82;62.89;101605.75;5072557;28;19936;-49
2021/09/16 09:27:02;;;;;;;;;;;;;;;20.65;63.03;101594.03;5072616;28;19928;-47
2021/09/16 09:29:30;;;;;;;;;;;;;;;20.83;61.78;101596.75;5069936;28;20078;-49
2021/09/16 09:32:15;;;;;;;;;;;;;;;20.71;61.60;101604.13;5072495;28;19925;-45
2021/09/16 09:34:42;;;;;;;;;;;;;;;21.02;62.46;101604.66;5072244;28;19936;-44
2021/09/16 09:37:11;;;;;;;;;;;;;;;21.09;61.74;101603.09;5070575;28;19932;-42
2021/09/16 09:39:39;;;;;;;;;;;;;;;21.63;60.88;101604.94;5072387;28;19932;-42
2021/09/16 09:42:16;;;;;;;;;;;;;;;21.59;59.13;101604.41;5071047;28;20034;-44
2021/09/16 09:44:43;;;;;;;;;;;;;;;21.32;58.95;101607.97;5071734;28;19924;-46
2021/09/16 09:47:09;;;;;;;;;;;;;;;21.71;59.56;101607.69;5071117;28;19928;-47
2021/09/16 09:49:38;;;;;;;;;;;;;;;21.88;59.24;101613.19;5072668;28;19974;-44
2021/09/16 09:52:05;;;;;;;;;;;;;;;22.17;58.34;101606.66;5054950;28;20141;-45
2021/09/16 09:54:33;;;;;;;;;;;;;;;22.31;57.42;101611.47;5071893;28;19974;-46
2021/09/16 09:57:16;;;;;;;;;;;;;;;22.35;57.09;101612.03;5054014;28;19928;-48
2021/09/16 10:00:00;;;;;;;;;;;;;;;22.74;57.20;101611.50;5070913;28;19925;-45
2021/09/16 10:02:28;;;;;;;;;;;;;;;22.40;55.12;101617.72;5072526;28;20053;-45
2021/09/16 10:04:56;;;;;;;;;;;;;;;22.30;55.07;101623.16;5071684;28;19997;-46
2021/09/16 10:07:33;;;;;;;;;;;;;;;22.37;55.35;101626.91;5070481;28;19978;-53
2021/09/16 10:10:02;;;;;;;;;;;;;;;22.37;54.61;101624.22;5072091;28;19924;-53
2021/09/16 10:12:29;;;;;;;;;;;;;;;22.27;55.60;101620.81;5070714;28;20014;-54
2021/09/16 10:15:04;;;;;;;;;;;;;;;22.30;55.82;101615.13;5071687;28;19928;-54
2021/09/16 10:17:31;;;;;;;;;;;;;;;22.11;54.43;101614.38;5071662;28;19929;-54
2021/09/16 10:19:58;;;;;;;;;;;;;;;22.31;54.37;101616.00;5070564;28;19932;-53
2021/09/16 10:22:25;;;;;;;;;;;;;;;22.55;54.94;101609.94;5071056;28;19936;-53
2021/09/16 10:24:56;;;;;;;;;;;;;;;23.16;54.50;101609.84;5071793;28;20846;-51
2021/09/16 10:27:37;;;;;;;;;;;;;;;23.35;52.58;101617.56;5068775;28;19929;-53
2021/09/16 10:30:23;;;;;;;;;;;;;;;23.65;52.36;101615.25;5070243;28;19962;-53
2021/09/16 10:33:08;;;;;;;;;;;;;;;23.94;51.17;101612.09;5072057;28;19925;-55
2021/09/16 10:35:36;;;;;;;;;;;;;;;23.87;50.40;101610.22;5070733;28;19960;-53
2021/09/16 10:38:21;;;;;;;;;;;;;;;23.82;49.88;101617.94;5071367;28;19974;-54
2021/09/16 10:40:49;;;;;;;;;;;;;;;24.03;46.97;101622.81;5071756;28;19935;-52
2021/09/16 10:43:19;;;;;;;;;;;;;;;23.96;48.19;101614.59;5069418;28;19955;-53
2021/09/16 10:45:46;;;;;;;;;;;;;;;24.26;47.17;101613.03;5070476;28;20023;-54
2021/09/16 10:48:13;;;;;;;;;;;;;;;24.29;47.74;101614.53;5071490;28;19925;-50
2021/09/16 10:50:43;;;;;;;;;;;;;;;24.26;44.72;101614.88;5069513;28;19924;-53
2021/09/16 10:53:28;;;;;;;;;;;;;;;24.48;46.16;101614.13;5071450;28;19924;-55
2021/09/16 10:55:55;;;;;;;;;;;;;;;24.23;46.20;101615.22;5071337;28;20550;-53
2021/09/16 10:58:23;;;;;;;;;;;;;;;24.56;45.58;101625.88;5067820;28;19955;-53
2021/09/16 11:00:50;;;;;;;;;;;;;;;24.62;44.74;101611.75;5070908;28;20504;-52
2021/09/16 11:03:17;;;;;;;;;;;;;;;24.54;46.83;101612.63;5066749;28;20410;-51
2021/09/16 11:05:46;;;;;;;;;;;;;;;24.20;45.78;101615.56;5068540;28;19994;-51
2021/09/16 11:08:14;;;;;;;;;;;;;;;24.68;45.74;101608.38;5070173;28;19930;-52
2021/09/16 11:10:41;;;;;;;;;;;;;;;24.75;44.00;101619.28;5069899;28;20428;-52
2021/09/16 11:13:26;;;;;;;;;;;;;;;25.16;45.27;101615.53;5067542;28;19925;-50
2021/09/16 11:15:53;;;;;;;;;;;;;;;25.28;43.78;101614.94;5069090;28;20363;-54
2021/09/16 11:18:40;;;;;;;;;;;;;;;26.07;43.28;101618.34;5069657;28;19928;-50
2021/09/16 11:21:08;;;;;;;;;;;;;;;25.87;42.55;101618.88;5070277;28;19925;-51
2021/09/16 11:23:34;;;;;;;;;;;;;;;25.94;42.76;101624.34;5070049;28;19977;-51
2021/09/16 11:26:01;;;;;;;;;;;;;;;25.96;43.13;101622.34;5069747;28;20027;-52
2021/09/16 11:28:28;;;;;;;;;;;;;;;25.29;42.90;101615.75;5067365;28;19928;-52
2021/09/16 11:30:55;;;;;;;;;;;;;;;25.29;42.97;101615.75;5070430;28;19955;-53
2021/09/16 11:33:22;;;;;;;;;;;;;;;25.11;43.76;101618.75;5069191;28;20053;-52
2021/09/16 11:35:49;;;;;;;;;;;;;;;25.02;44.03;101626.03;5069531;28;19925;-51
2021/09/16 11:38:16;;;;;;;;;;;;;;;24.95;45.25;101633.13;5069395;28;19924;-51
2021/09/16 11:40:44;;;;;;;;;;;;;;;24.55;45.32;101641.16;5068403;28;20288;-52
2021/09/16 11:43:16;;;;;;;;;;;;;;;24.77;46.21;101639.59;5068236;28;19929;-53
2021/09/16 11:45:46;;;;;;;;;;;;;;;24.07;46.74;101642.97;5069693;28;19928;-50
2021/09/16 11:48:17;;;;;;;;;;;;;;;24.26;46.56;101641.75;5068209;28;19939;-52
2021/09/16 11:50:48;;;;;;;;;;;;;;;24.33;47.81;101653.47;5068107;28;19933;-52
2021/09/16 11:53:18;;;;;;;;;;;;;;;24.23;46.03;101640.25;5068330;28;20930;-50
2021/09/16 11:55:45;;;;;;;;;;;;;;;24.88;46.06;101634.84;5068044;28;19951;-51
2021/09/16 11:58:12;;;;;;;;;;;;;;;24.37;45.15;101633.31;5066591;28;19959;-50
2021/09/16 12:00:40;;;;;;;;;;;;;;;24.50;44.88;101631.94;5069722;28;19924;-51
2021/09/16 12:03:08;;;;;;;;;;;;;;;25.01;44.43;101637.81;5068134;28;19928;-51
2021/09/16 12:05:35;;;;;;;;;;;;;;;24.17;47.17;101634.72;5068126;28;20362;-52
2021/09/16 12:08:02;;;;;;;;;;;;;;;24.37;46.06;101638.69;5069862;28;19931;-49
2021/09/16 12:10:39;;;;;;;;;;;;;;;24.19;45.89;101635.41;5069172;28;19973;-49
2021/09/16 12:13:06;;;;;;;;;;;;;;;24.65;45.44;101630.25;5066862;28;19986;-53
2021/09/16 12:15:34;;;;;;;;;;;;;;;25.01;44.12;101629.72;5067913;28;19970;-52
2021/09/16 12:18:01;;;;;;;;;;;;;;;25.23;44.20;101627.25;5067343;28;19947;-52
2021/09/16 12:20:27;;;;;;;;;;;;;;;25.05;44.00;101631.06;5068705;28;19925;-49
2021/09/16 12:22:54;;;;;;;;;;;;;;;24.46;44.32;101626.91;5068033;28;20264;-49
2021/09/16 12:25:21;;;;;;;;;;;;;;;24.00;45.30;101634.75;5067652;28;20338;-50
2021/09/16 12:28:04;;;;;;;;;;;;;;;23.62;46.45;101639.75;5066368;28;20394;-42
2021/09/16 12:30:36;;;;;;;;;;;;;;;22.87;48.50;101627.16;5069320;28;19994;-45
2021/09/16 12:33:03;;;;;;;;;;;;;;;23.19;48.82;101641.69;5067546;28;19982;-43
2021/09/16 12:35:30;;;;;;;;;;;;;;;23.27;49.97;101649.75;5067439;28;19978;-43
2021/09/16 12:38:06;;;;;;;;;;;;;;;23.34;49.36;101637.38;5040774;28;19932;-53